Time;durP1;ratioP1;P1;durP2;ratioP2;P2;SDS_P1;SDS_P2;PMS_P1;PMS_P2;Temp;Humidity;BMP_temperature;BMP_pressure;BME280_temperature;BME280_humidity;BME280_pressure;Samples;Min_cycle;Max_cycle;Signal;HPM_P1;HPM_P2
2022/01/29 00:03:05;;;;;;;34.05;16.23;;;;;;;-3.02;85.47;100697.22;10374729;28;20117;-71
2022/01/29 00:08:06;;;;;;;34.35;17.40;;;;;;;-2.70;85.25;100754.66;10376638;28;20038;-71
2022/01/29 00:13:07;;;;;;;38.00;17.25;;;;;;;-3.59;85.49;100601.19;10375976;28;20131;-71
2022/01/29 00:18:08;;;;;;;38.30;18.27;;;;;;;-3.07;85.55;100694.00;10375340;28;20524;-71
2022/01/29 00:23:09;;;;;;;37.15;17.58;;;;;;;-2.34;85.51;100810.09;10376208;28;20049;-71
2022/01/29 00:28:12;;;;;;;36.88;17.92;;;;;;;-2.34;85.81;100797.09;10375000;28;20501;-71
2022/01/29 00:33:14;;;;;;;36.65;17.83;;;;;;;-2.39;85.83;100796.50;10376424;28;20053;-71
2022/01/29 00:38:15;;;;;;;36.80;17.33;;;;;;;-2.66;85.42;100762.25;10375200;28;20092;-72
2022/01/29 00:43:17;;;;;;;36.78;17.33;;;;;;;-2.97;86.05;100700.44;10375935;28;20561;-71
2022/01/29 00:48:18;;;;;;;37.60;17.08;;;;;;;-2.80;86.03;100738.66;10375325;28;20564;-71
2022/01/29 00:53:19;;;;;;;41.72;17.85;;;;;;;-3.31;85.96;100638.84;10374939;28;20099;-71
2022/01/29 00:58:19;;;;;;;38.30;18.02;;;;;;;-3.40;86.00;100637.53;10374071;28;20046;-72
2022/01/29 01:03:20;;;;;;;38.17;18.52;;;;;;;-2.63;86.53;100756.03;10374137;28;20041;-71
2022/01/29 01:08:21;;;;;;;40.10;18.17;;;;;;;-2.57;85.78;100743.59;10373855;28;20046;-71
2022/01/29 01:13:22;;;;;;;39.10;19.17;;;;;;;-3.00;86.14;100661.59;10373507;28;20049;-71
2022/01/29 01:18:23;;;;;;;40.83;19.90;;;;;;;-2.56;86.38;100726.22;10374041;28;20050;-71
2022/01/29 01:23:24;;;;;;;40.22;19.60;;;;;;;-2.18;86.61;100778.16;10374834;28;20034;-71
2022/01/29 01:28:25;;;;;;;39.33;18.70;;;;;;;-2.53;85.77;100731.28;10373199;28;20042;-71
2022/01/29 01:33:26;;;;;;;42.97;20.42;;;;;;;-3.21;86.21;100648.72;10373005;28;20093;-71
2022/01/29 01:38:43;;;;;;;37.45;19.65;;;;;;;-2.38;86.61;100771.31;10374070;28;20042;-71
2022/01/29 01:43:44;;;;;;;49.90;21.77;;;;;;;-2.28;86.73;100764.72;10373069;28;20062;-72
2022/01/29 01:48:44;;;;;;;48.47;22.55;;;;;;;-2.40;86.29;100729.75;10372909;28;20045;-71
2022/01/29 01:53:45;;;;;;;53.95;23.38;;;;;;;-3.50;86.25;100519.38;10373993;28;20084;-71
2022/01/29 01:58:46;;;;;;;57.60;25.52;;;;;;;-2.64;86.22;100655.53;10373414;28;20124;-71
2022/01/29 02:03:47;;;;;;;53.15;25.33;;;;;;;-2.90;86.03;100607.41;10372054;28;20509;-71
2022/01/29 02:08:57;;;;;;;60.22;24.73;;;;;;;-3.27;86.02;100534.69;10372821;28;20041;-72
2022/01/29 02:14:00;;;;;;;55.20;24.80;;;;;;;-2.89;86.07;100593.50;10372888;28;20128;-71
2022/01/29 02:19:01;;;;;;;56.95;26.45;;;;;;;-2.56;86.02;100663.81;10372993;28;20056;-71
2022/01/29 02:24:01;;;;;;;57.58;27.40;;;;;;;-2.75;86.43;100637.88;10397264;28;20378;-71
2022/01/29 02:29:03;;;;;;;53.38;23.73;;;;;;;-2.23;86.36;100728.06;10419800;28;20497;-72
2022/01/29 02:34:04;;;;;;;59.08;24.98;;;;;;;-3.10;86.13;100579.81;10421854;28;20405;-72
2022/01/29 02:39:05;;;;;;;58.47;25.88;;;;;;;-2.46;86.79;100685.81;10422179;28;20038;-71
2022/01/29 02:44:07;;;;;;;57.72;24.92;;;;;;;-3.36;86.03;100529.94;10421008;28;20075;-71
2022/01/29 02:49:08;;;;;;;50.75;24.25;;;;;;;-2.57;86.22;100647.34;10421342;28;20413;-72
2022/01/29 02:54:09;;;;;;;58.90;25.25;;;;;;;-3.24;85.70;100528.50;10420393;28;20448;-71
2022/01/29 02:59:10;;;;;;;59.38;26.08;;;;;;;-2.11;86.10;100717.06;10426898;28;20103;-71
2022/01/29 03:04:11;;;;;;;50.75;24.25;;;;;;;-2.11;86.61;100712.69;10420143;28;20037;-72
2022/01/29 03:09:12;;;;;;;55.67;24.17;;;;;;;-2.08;86.28;100701.28;10419569;28;20041;-71
2022/01/29 03:14:13;;;;;;;60.95;26.17;;;;;;;-2.11;86.42;100691.03;10420199;28;20038;-72
2022/01/29 03:19:13;;;;;;;55.83;25.08;;;;;;;-2.13;86.87;100690.25;10419336;28;20042;-71
2022/01/29 03:24:14;;;;;;;58.97;25.95;;;;;;;-2.13;86.85;100695.44;10419470;28;20119;-71
2022/01/29 03:29:15;;;;;;;54.00;25.80;;;;;;;-2.21;87.48;100687.22;10419699;28;20049;-72
2022/01/29 03:34:16;;;;;;;61.33;26.02;;;;;;;-2.48;87.53;100640.84;10418572;28;20045;-72
2022/01/29 03:39:17;;;;;;;55.92;24.80;;;;;;;-2.16;86.65;100695.59;10418410;28;20042;-73
2022/01/29 03:44:18;;;;;;;59.35;25.20;;;;;;;-2.15;87.06;100686.91;10418438;28;20084;-71
2022/01/29 03:49:19;;;;;;;55.00;24.60;;;;;;;-2.36;87.22;100663.66;10418601;28;20045;-72
2022/01/29 03:54:20;;;;;;;64.93;24.83;;;;;;;-2.12;87.49;100708.41;10418165;28;20037;-72
2022/01/29 03:59:20;;;;;;;48.67;23.08;;;;;;;-3.25;87.21;100514.69;10418103;28;20081;-72
2022/01/29 04:04:21;;;;;;;53.03;23.20;;;;;;;-2.01;87.56;100715.66;10417489;28;20160;-71
2022/01/29 04:09:23;;;;;;;51.70;24.45;;;;;;;-2.08;86.78;100722.94;10417277;28;20416;-71
2022/01/29 04:14:24;;;;;;;53.75;23.90;;;;;;;-2.34;87.62;100695.63;10417481;28;20045;-71
2022/01/29 04:19:24;;;;;;;50.50;23.17;;;;;;;-2.88;87.44;100616.81;10416834;28;20045;-72
2022/01/29 04:24:26;;;;;;;50.88;24.95;;;;;;;-2.17;87.61;100728.59;10416770;28;20045;-71
2022/01/29 04:29:39;;;;;;;51.60;22.80;;;;;;;-2.74;87.64;100659.50;10416498;28;20049;-72
2022/01/29 04:34:40;;;;;;;53.30;23.10;;;;;;;-2.58;87.17;100713.28;10416741;28;20037;-71
2022/01/29 04:39:41;;;;;;;58.17;24.02;;;;;;;-2.25;87.54;100761.13;10416726;28;20040;-71
2022/01/29 04:44:42;;;;;;;61.60;25.10;;;;;;;-2.85;87.45;100686.88;10416905;28;20068;-72
2022/01/29 04:49:42;;;;;;;46.30;21.40;;;;;;;-2.52;87.76;100725.16;10413665;28;20132;-71
2022/01/29 04:54:43;;;;;;;54.95;22.73;;;;;;;-2.20;87.68;100761.75;10413409;28;20139;-71
2022/01/29 04:59:44;;;;;;;55.63;21.30;;;;;;;-2.69;87.37;100692.19;10415764;28;20120;-71
2022/01/29 05:04:45;;;;;;;53.72;22.38;;;;;;;-3.46;86.98;100584.09;10415708;28;20091;-71
2022/01/29 05:09:46;;;;;;;49.33;22.40;;;;;;;-2.90;87.26;100696.66;10416419;28;20564;-71
2022/01/29 05:30:37;;;;;;;47.72;22.38;;;;;;;-2.72;86.96;100577.91;10415122;28;20417;-72
2022/01/29 05:35:38;;;;;;;45.95;21.92;;;;;;;-2.66;85.92;100556.81;10429301;28;20087;-72
2022/01/29 05:40:39;;;;;;;46.88;22.33;;;;;;;-1.50;84.96;100702.59;10413639;28;20041;-73
2022/01/29 05:45:40;;;;;;;45.95;19.95;;;;;;;-0.93;85.55;100792.47;10414349;28;20075;-73
2022/01/29 05:50:41;;;;;;;43.58;20.50;;;;;;;-0.69;84.64;100778.97;10412662;28;20042;-73
2022/01/29 05:55:41;;;;;;;46.40;21.48;;;;;;;-0.66;83.84;100699.69;10395184;28;20053;-72
2022/01/29 06:00:42;;;;;;;43.90;21.05;;;;;;;-0.37;82.71;100708.47;10409422;28;20042;-73
2022/01/29 06:05:43;;;;;;;43.97;21.52;;;;;;;0.21;82.18;100762.50;10412916;28;20120;-73
2022/01/29 06:10:44;;;;;;;45.50;20.33;;;;;;;-0.30;81.30;100631.47;10413512;28;20136;-73
2022/01/29 06:15:48;;;;;;;44.08;21.13;;;;;;;0.59;80.64;100744.50;10412540;28;20041;-73
2022/01/29 06:21:03;;;;;;;45.40;22.10;;;;;;;0.79;80.84;100727.56;10413773;28;20135;-73
2022/01/29 06:26:09;;;;;;;41.58;20.80;;;;;;;0.54;79.64;100600.19;10412550;28;20038;-73
2022/01/29 06:31:10;;;;;;;41.70;21.20;;;;;;;1.52;78.17;100667.03;10428401;28;20045;-73
2022/01/29 06:36:11;;;;;;;40.88;21.70;;;;;;;2.42;76.77;100758.81;10396934;28;20136;-74
2022/01/29 06:41:12;;;;;;;42.45;21.42;;;;;;;1.94;77.07;100693.06;10376040;28;20132;-74
2022/01/29 06:46:13;;;;;;;41.00;20.83;;;;;;;1.92;76.94;100742.97;10404925;28;20103;-75
2022/01/29 06:51:16;;;;;;;38.03;20.75;;;;;;;1.80;76.63;100777.84;10381191;28;20069;-74
2022/01/29 06:56:17;;;;;;;42.53;20.60;;;;;;;1.61;76.75;100749.38;10375773;28;20049;-74
2022/01/29 07:01:18;;;;;;;38.58;19.88;;;;;;;1.72;76.89;100746.06;10402996;28;20049;-74
2022/01/29 07:06:19;;;;;;;32.22;17.92;;;;;;;1.77;75.94;100751.84;10409182;28;20200;-73
2022/01/29 07:11:22;;;;;;;37.67;19.65;;;;;;;1.90;76.19;100770.19;10415662;28;20128;-74
2022/01/29 07:16:23;;;;;;;38.03;19.45;;;;;;;1.66;76.36;100728.13;10419905;28;20091;-78
2022/01/29 07:21:24;;;;;;;38.28;19.25;;;;;;;2.02;75.78;100749.25;10413110;28;20103;-73
2022/01/29 07:26:25;;;;;;;38.90;19.33;;;;;;;1.52;75.26;100647.88;10418901;28;20041;-70
2022/01/29 07:31:26;;;;;;;41.38;19.38;;;;;;;1.67;75.90;100670.41;10419812;28;20045;-73
2022/01/29 07:36:27;;;;;;;33.97;18.65;;;;;;;1.87;74.95;100712.78;10418686;28;20390;-72
2022/01/29 07:41:27;;;;;;;36.05;18.10;;;;;;;1.69;74.96;100668.53;10417084;28;20045;-72
2022/01/29 07:46:28;;;;;;;32.17;17.30;;;;;;;0.39;74.86;100478.28;10417689;28;20053;-74
2022/01/29 07:51:29;;;;;;;36.22;17.48;;;;;;;0.71;75.52;100559.84;10415754;28;20042;-74
2022/01/29 07:56:30;;;;;;;32.08;18.13;;;;;;;1.42;75.60;100712.25;10408003;28;20083;-70
2022/01/29 08:01:31;;;;;;;35.60;17.50;;;;;;;1.48;76.48;100745.88;10416753;28;20041;-71
2022/01/29 08:06:32;;;;;;;34.17;17.73;;;;;;;1.77;76.30;100717.78;10418041;28;20053;-70
2022/01/29 08:11:33;;;;;;;33.95;17.95;;;;;;;2.26;74.71;100728.41;10416019;28;20057;-75
2022/01/29 08:16:34;;;;;;;33.25;17.08;;;;;;;1.74;74.50;100543.34;10415862;28;20048;-76
2022/01/29 08:21:34;;;;;;;32.25;17.48;;;;;;;2.72;71.93;100617.66;10399306;28;20124;-73
2022/01/29 08:26:35;;;;;;;27.80;15.90;;;;;;;2.47;71.31;100545.16;10417822;28;20046;-75
2022/01/29 08:31:36;;;;;;;27.88;15.13;;;;;;;3.29;72.30;100696.66;10417511;28;20072;-71
2022/01/29 08:36:37;;;;;;;25.73;13.57;;;;;;;3.30;69.68;100623.03;10416563;28;20037;-78
2022/01/29 08:41:38;;;;;;;30.02;14.63;;;;;;;3.96;69.42;100667.16;10416215;28;20051;-75
2022/01/29 08:46:39;;;;;;;29.25;15.77;;;;;;;3.36;67.80;100527.22;10417345;28;20061;-74
2022/01/29 08:51:40;;;;;;;25.10;13.38;;;;;;;3.99;67.46;100609.91;10415868;28;20513;-72
2022/01/29 08:56:41;;;;;;;25.65;12.80;;;;;;;4.36;66.91;100609.66;10415602;28;20053;-73
2022/01/29 09:01:42;;;;;;;26.00;12.13;;;;;;;4.35;66.19;100610.63;10415625;28;20041;-74
2022/01/29 09:06:43;;;;;;;24.42;12.70;;;;;;;4.55;65.85;100636.19;10377581;28;20052;-72
2022/01/29 09:11:44;;;;;;;23.48;14.23;;;;;;;4.61;65.57;100568.22;10397310;28;20063;-72
2022/01/29 09:16:45;;;;;;;22.95;13.20;;;;;;;5.19;64.20;100616.13;10383039;28;20112;-78
2022/01/29 09:21:46;;;;;;;23.63;13.40;;;;;;;4.99;63.98;100521.16;10408865;28;20077;-79
2022/01/29 09:26:47;;;;;;;21.45;12.43;;;;;;;5.79;64.69;100627.75;10415272;28;20045;-79
2022/01/29 09:31:47;;;;;;;20.27;11.30;;;;;;;5.40;63.94;100631.94;10414798;28;20045;-80
2022/01/29 09:36:48;;;;;;;20.40;10.80;;;;;;;5.00;64.19;100632.59;10413992;28;20095;-79
2022/01/29 09:41:50;;;;;;;19.80;10.50;;;;;;;4.61;64.04;100576.97;10413861;28;20457;-80
2022/01/29 09:46:51;;;;;;;19.02;10.40;;;;;;;4.80;63.78;100628.94;10413725;28;20068;-80
2022/01/29 09:51:52;;;;;;;14.38;8.60;;;;;;;4.57;63.86;100536.88;10414565;28;20443;-81
2022/01/29 09:56:53;;;;;;;15.00;9.10;;;;;;;5.20;63.01;100631.78;10413775;28;20041;-80
2022/01/29 10:01:54;;;;;;;27.02;9.20;;;;;;;5.06;63.33;100595.25;10412996;28;20045;-79
2022/01/29 10:07:14;;;;;;;15.77;7.35;;;;;;;5.39;62.77;100628.50;10413979;28;20068;-78
2022/01/29 10:12:27;;;;;;;13.60;8.27;;;;;;;4.63;62.52;100511.06;10412778;28;20045;-81
2022/01/29 10:17:48;;;;;;;15.63;8.50;;;;;;;5.14;62.79;100618.28;10412676;28;20068;-80
2022/01/29 10:22:49;;;;;;;15.77;8.77;;;;;;;5.06;62.16;100620.75;10429040;28;20471;-79
2022/01/29 10:28:11;;;;;;;13.18;8.23;;;;;;;5.22;62.81;100634.31;10413286;28;20124;-79
2022/01/29 10:33:20;;;;;;;14.63;8.45;;;;;;;4.41;61.55;100489.13;10381466;28;20046;-81
2022/01/29 10:38:22;;;;;;;13.35;8.45;;;;;;;4.96;62.07;100553.00;10372492;28;20049;-79
2022/01/29 10:43:23;;;;;;;15.48;9.00;;;;;;;5.78;61.44;100634.00;10372820;28;20054;-72
2022/01/29 10:48:41;;;;;;;13.35;8.00;;;;;;;5.81;61.95;100628.47;10375778;28;20092;-72
2022/01/29 10:53:43;;;;;;;16.77;8.55;;;;;;;5.57;62.04;100610.31;10394232;28;20514;-70
2022/01/29 10:58:46;;;;;;;12.60;8.30;;;;;;;4.63;61.60;100445.28;10396029;28;20124;-73
2022/01/29 11:03:47;;;;;;;14.02;8.50;;;;;;;5.86;62.75;100626.28;10394075;28;20104;-71
2022/01/29 11:08:48;;;;;;;13.27;7.88;;;;;;;5.85;61.37;100629.88;10396054;28;20091;-71
2022/01/29 11:13:49;;;;;;;18.02;8.65;;;;;;;5.84;61.86;100619.47;10403632;28;20043;-69
2022/01/29 11:18:50;;;;;;;16.63;8.55;;;;;;;5.62;61.45;100557.19;10393871;28;20038;-71
2022/01/29 11:23:53;;;;;;;15.73;8.07;;;;;;;5.63;60.59;100585.22;10403137;28;20046;-71
2022/01/29 11:29:32;;;;;;;13.32;7.63;;;;;;;5.77;61.55;100611.22;10397440;28;20056;-73
2022/01/29 11:34:33;;;;;;;13.57;7.28;;;;;;;4.81;62.61;100506.91;10418188;28;20141;-73
2022/01/29 11:39:36;;;;;;;14.52;8.18;;;;;;;4.50;63.27;100455.97;10418735;28;20449;-73
2022/01/29 11:44:38;;;;;;;12.55;7.53;;;;;;;5.32;63.19;100606.22;10418021;28;20061;-71
2022/01/29 11:49:38;;;;;;;13.40;6.78;;;;;;;4.22;63.19;100418.78;10417294;28;20139;-70
2022/01/29 11:55:02;;;;;;;10.35;6.32;;;;;;;5.52;63.99;100601.09;10417356;28;20053;-75
2022/01/29 12:00:36;;;;;;;15.25;6.45;;;;;;;5.42;64.20;100603.69;10417083;28;20060;-71
2022/01/29 12:11:12;;;;;;;12.00;6.85;;;;;;;5.08;64.50;100598.56;10426090;28;20076;-72
2022/01/29 12:16:55;;;;;;;11.48;6.65;;;;;;;5.23;65.41;100613.13;10416602;28;20052;-71
2022/01/29 12:21:56;;;;;;;11.33;6.60;;;;;;;5.10;65.05;100591.38;10436497;28;20071;-72
2022/01/29 12:26:58;;;;;;;12.95;7.65;;;;;;;5.27;65.56;100595.25;10415785;28;20051;-72
2022/01/29 12:31:59;;;;;;;12.93;7.43;;;;;;;5.21;65.45;100591.34;10415138;28;20041;-72
2022/01/29 12:37:19;;;;;;;14.45;7.68;;;;;;;4.22;65.42;100452.97;10416841;28;20046;-72
2022/01/29 12:47:29;;;;;;;16.08;8.00;;;;;;;4.78;67.08;100597.47;10415475;28;20087;-71
2022/01/29 12:52:31;;;;;;;12.40;6.95;;;;;;;4.77;67.26;100608.13;10405666;28;20473;-72
2022/01/29 12:57:48;;;;;;;17.83;7.32;;;;;;;4.63;67.88;100618.94;10395241;28;21091;-73
2022/01/29 13:02:49;;;;;;;13.40;7.78;;;;;;;3.30;68.72;100428.75;10422267;28;20057;-73
2022/01/29 13:07:50;;;;;;;13.30;7.97;;;;;;;3.54;68.90;100503.97;10415581;28;20050;-73
2022/01/29 13:12:51;;;;;;;20.92;8.30;;;;;;;4.07;69.65;100623.31;10408230;28;20038;-73
2022/01/29 13:17:52;;;;;;;14.93;8.35;;;;;;;3.20;70.36;100514.41;10414571;28;20528;-74
2022/01/29 13:22:53;;;;;;;23.08;9.18;;;;;;;3.81;70.31;100606.09;10376411;28;20077;-75
2022/01/29 13:28:13;;;;;;;11.90;7.93;;;;;;;3.71;71.47;100620.84;10373911;28;20041;-76
2022/01/29 13:33:16;;;;;;;15.05;9.18;;;;;;;2.90;71.68;100517.53;10374311;28;20561;-74
2022/01/29 13:38:23;;;;;;;15.40;9.15;;;;;;;2.10;72.49;100420.34;10390241;28;20119;-77
2022/01/29 13:43:34;;;;;;;18.33;8.65;;;;;;;3.09;72.73;100599.22;10370970;28;20430;-77
2022/01/29 13:48:42;;;;;;;13.73;8.07;;;;;;;2.19;73.16;100483.41;10372160;28;20053;-77
2022/01/29 13:53:47;;;;;;;16.50;8.60;;;;;;;2.68;73.07;100605.69;10370466;28;20050;-76
2022/01/29 13:58:52;;;;;;;18.45;11.70;;;;;;;2.43;74.43;100609.25;10372373;28;20510;-78
2022/01/29 14:03:53;;;;;;;20.08;10.02;;;;;;;1.14;74.48;100413.97;10387814;28;20077;-78
2022/01/29 14:14:33;;;;;;;20.05;7.63;;;;;;;2.16;75.50;100596.31;10374333;28;20429;-78
2022/01/29 14:19:35;;;;;;;16.83;8.40;;;;;;;2.07;76.03;100619.72;10371071;28;20048;-77
2022/01/29 14:24:37;;;;;;;16.48;9.18;;;;;;;1.96;76.20;100602.94;10372178;28;20405;-78
2022/01/29 14:29:40;;;;;;;17.17;8.68;;;;;;;1.28;76.49;100507.22;10373028;28;20045;-77
2022/01/29 14:34:43;;;;;;;17.52;9.73;;;;;;;1.10;77.01;100516.31;10371289;28;20077;-77
2022/01/29 14:39:44;;;;;;;17.30;8.82;;;;;;;0.72;76.92;100464.81;10375625;28;20087;-78
2022/01/29 14:44:46;;;;;;;25.50;11.70;;;;;;;0.84;77.21;100521.53;10392145;28;20133;-74
2022/01/29 14:49:47;;;;;;;23.83;10.20;;;;;;;1.22;78.40;100621.94;10391455;28;20507;-73
2022/01/29 14:54:48;;;;;;;19.05;9.73;;;;;;;1.28;79.21;100613.69;10387058;28;20068;-78
2022/01/29 14:59:49;;;;;;;16.50;10.10;;;;;;;1.42;78.83;100641.56;10391760;28;20041;-73
2022/01/29 15:04:54;;;;;;;18.48;9.32;;;;;;;0.28;77.96;100491.22;10412143;28;20128;-75
2022/01/29 15:09:55;;;;;;;25.25;12.80;;;;;;;1.18;78.80;100652.72;10410314;28;20084;-73
2022/01/29 15:14:56;;;;;;;40.90;21.23;;;;;;;0.67;79.04;100639.44;10408097;28;20148;-78
2022/01/29 15:19:57;;;;;;;37.92;19.90;;;;;;;0.65;79.37;100699.66;10410585;28;20128;-77
2022/01/29 15:24:57;;;;;;;38.90;17.98;;;;;;;0.18;79.86;100616.34;10412258;28;20052;-77
2022/01/29 15:29:58;;;;;;;36.55;17.48;;;;;;;0.33;79.78;100696.44;10411669;28;20144;-77
2022/01/29 15:34:59;;;;;;;42.00;17.75;;;;;;;-0.97;79.69;100488.44;10418363;28;20046;-78
2022/01/29 15:40:00;;;;;;;52.22;23.83;;;;;;;-0.99;79.82;100532.03;10419504;28;20072;-77
2022/01/29 15:45:01;;;;;;;41.58;19.35;;;;;;;-0.39;81.01;100650.28;10416455;28;20505;-77
2022/01/29 15:50:02;;;;;;;41.90;19.60;;;;;;;-0.16;81.45;100693.31;10433934;28;20147;-74
2022/01/29 15:55:04;;;;;;;62.00;28.50;;;;;;;-0.47;81.86;100659.41;10407888;28;20509;-76
2022/01/29 16:00:07;;;;;;;59.40;25.02;;;;;;;-2.06;81.64;100387.06;10419157;28;20045;-75
2022/01/29 16:05:10;;;;;;;55.67;22.67;;;;;;;-0.68;82.07;100625.91;10433349;28;20045;-75
2022/01/29 16:10:11;;;;;;;43.13;17.10;;;;;;;-2.01;82.02;100431.88;10415076;28;20033;-77
2022/01/29 16:15:12;;;;;;;23.70;13.50;;;;;;;-0.96;82.89;100633.56;10414083;28;20057;-78
2022/01/29 16:20:14;;;;;;;28.83;13.90;;;;;;;-0.46;83.55;100704.63;10414422;28;20029;-79
2022/01/29 16:25:15;;;;;;;20.02;11.55;;;;;;;-0.72;84.10;100669.56;10414286;28;20099;-77
2022/01/29 16:30:15;;;;;;;35.67;17.95;;;;;;;-1.85;83.64;100463.13;10408181;28;20037;-77
2022/01/29 16:35:16;;;;;;;38.47;20.05;;;;;;;-0.30;83.80;100707.16;10409238;28;20038;-77
2022/01/29 16:40:17;;;;;;;42.67;21.20;;;;;;;-1.45;83.00;100544.25;10414301;28;20040;-78
2022/01/29 16:45:18;;;;;;;41.58;20.58;;;;;;;-0.48;83.08;100711.69;10414162;28;20049;-77
2022/01/29 16:50:19;;;;;;;31.40;16.25;;;;;;;-0.76;83.41;100712.44;10413324;28;20511;-78
2022/01/29 16:55:20;;;;;;;35.55;15.10;;;;;;;-1.98;83.12;100541.06;10403259;28;20065;-76
2022/01/29 17:00:21;;;;;;;33.30;16.73;;;;;;;-1.30;83.51;100662.44;10424253;28;20558;-78
2022/01/29 17:05:22;;;;;;;34.45;17.30;;;;;;;-1.68;84.37;100593.22;10414110;28;20041;-78
2022/01/29 17:10:23;;;;;;;44.20;19.83;;;;;;;-3.13;84.63;100388.50;10411642;28;20473;-78
2022/01/29 17:15:24;;;;;;;38.42;18.45;;;;;;;-1.83;84.58;100584.50;10410399;28;20041;-79
2022/01/29 17:20:26;;;;;;;39.95;19.63;;;;;;;-1.06;84.25;100718.41;10412935;28;20048;-78
2022/01/29 17:25:27;;;;;;;40.70;19.73;;;;;;;-2.40;83.38;100534.63;10410240;28;20485;-78
2022/01/29 17:30:28;;;;;;;44.63;20.20;;;;;;;-1.43;84.41;100683.09;10412224;28;20033;-78
2022/01/29 17:35:29;;;;;;;37.70;20.52;;;;;;;-2.28;84.98;100563.53;10408186;28;20099;-79
2022/01/29 17:40:30;;;;;;;38.25;19.08;;;;;;;-1.39;84.57;100718.50;10406293;28;20412;-78
2022/01/29 17:45:32;;;;;;;38.55;18.10;;;;;;;-1.51;84.88;100701.75;10409655;28;20063;-78
2022/01/29 17:50:33;;;;;;;34.45;17.42;;;;;;;-1.58;84.21;100695.19;10412172;28;20104;-77
2022/01/29 17:55:36;;;;;;;37.75;16.73;;;;;;;-2.80;84.73;100507.25;10405502;28;20147;-78
2022/01/29 18:00:40;;;;;;;37.53;17.73;;;;;;;-1.62;84.87;100702.31;10411744;28;20041;-78
2022/01/29 18:05:41;;;;;;;28.58;15.07;;;;;;;-2.59;84.61;100584.16;10409007;28;20048;-78
2022/01/29 18:10:41;;;;;;;39.53;19.30;;;;;;;-2.77;85.29;100583.34;10410604;28;20041;-78
2022/01/29 18:15:42;;;;;;;35.05;17.90;;;;;;;-2.97;85.52;100515.06;10410579;28;20397;-78
2022/01/29 18:20:43;;;;;;;28.08;15.02;;;;;;;-1.65;86.18;100712.88;10411278;28;20051;-77
2022/01/29 18:25:46;;;;;;;30.88;16.17;;;;;;;-1.62;85.98;100707.50;10411711;28;20029;-78
2022/01/29 18:30:47;;;;;;;43.70;22.27;;;;;;;-2.28;85.96;100619.00;10410579;28;20034;-79
2022/01/29 18:35:48;;;;;;;50.35;25.52;;;;;;;-2.65;86.26;100568.03;10411063;28;20048;-78
2022/01/29 18:40:52;;;;;;;37.08;18.35;;;;;;;-1.77;85.95;100756.97;10405240;28;20049;-77
2022/01/29 18:45:55;;;;;;;47.88;23.05;;;;;;;-4.02;85.92;100376.56;10412676;28;20057;-77
2022/01/29 18:50:57;;;;;;;40.15;19.08;;;;;;;-1.88;86.27;100732.34;10386921;28;20494;-78
2022/01/29 18:55:57;;;;;;;27.58;14.43;;;;;;;-3.33;86.13;100487.41;10362024;28;20160;-78
2022/01/29 19:00:59;;;;;;;30.38;14.13;;;;;;;-1.75;86.73;100731.69;10371612;28;20038;-78
2022/01/29 19:06:00;;;;;;;24.60;13.32;;;;;;;-3.25;86.84;100482.69;10372400;28;20132;-78
2022/01/29 19:11:01;;;;;;;30.23;15.25;;;;;;;-2.04;86.87;100689.78;10378363;28;20092;-78
2022/01/29 19:16:03;;;;;;;23.70;13.30;;;;;;;-1.89;86.42;100725.44;10379338;28;20042;-78
2022/01/29 19:21:04;;;;;;;26.60;13.38;;;;;;;-3.26;85.86;100541.59;10378935;28;20050;-78
2022/01/29 19:26:05;;;;;;;25.35;11.70;;;;;;;-2.08;86.86;100730.75;10378004;28;20041;-78
2022/01/29 19:31:06;;;;;;;26.02;11.75;;;;;;;-3.55;85.02;100496.25;10366548;28;20076;-77
2022/01/29 19:36:07;;;;;;;21.08;10.00;;;;;;;-3.13;85.77;100626.75;10347368;28;20046;-78
2022/01/29 19:41:08;;;;;;;19.35;10.15;;;;;;;-2.65;86.89;100690.28;10338369;28;20046;-78
2022/01/29 19:46:09;;;;;;;23.17;11.00;;;;;;;-3.44;87.94;100545.06;10337008;28;20426;-78
2022/01/29 19:51:10;;;;;;;27.50;14.23;;;;;;;-2.66;87.51;100639.16;10336695;28;20050;-78
2022/01/29 19:56:11;;;;;;;69.38;38.10;;;;;;;-2.03;87.86;100727.06;10336700;28;20061;-78
2022/01/29 20:01:11;;;;;;;58.67;29.00;;;;;;;-2.69;88.15;100608.09;10337286;28;20089;-78
2022/01/29 20:06:13;;;;;;;33.00;18.55;;;;;;;-2.45;88.14;100660.66;10336560;28;20042;-78
2022/01/29 20:11:21;;;;;;;28.92;14.35;;;;;;;-3.41;87.46;100498.19;10335306;28;20058;-78
2022/01/29 20:16:22;;;;;;;49.05;23.50;;;;;;;-2.17;87.92;100702.59;10335545;28;20101;-78
2022/01/29 20:21:24;;;;;;;36.63;20.48;;;;;;;-2.55;86.94;100701.88;10334677;28;20045;-78
2022/01/29 20:26:30;;;;;;;38.38;17.50;;;;;;;-3.77;87.32;100545.78;10335995;28;20129;-77
2022/01/29 20:31:34;;;;;;;35.83;16.17;;;;;;;-2.78;87.68;100724.66;10336246;28;20046;-78
2022/01/29 20:36:35;;;;;;;26.23;14.15;;;;;;;-3.60;86.41;100596.06;10335738;28;20048;-78
2022/01/29 20:41:36;;;;;;;24.08;11.85;;;;;;;-3.00;86.64;100711.00;10335723;28;20510;-78
2022/01/29 20:46:41;;;;;;;25.20;11.50;;;;;;;-3.00;88.08;100695.41;10335536;28;20065;-78
2022/01/29 20:51:42;;;;;;;24.95;13.57;;;;;;;-2.96;87.23;100673.56;10333883;28;20038;-78
2022/01/29 20:56:43;;;;;;;23.88;11.48;;;;;;;-3.09;88.09;100681.09;10333947;28;20050;-78
2022/01/29 21:01:44;;;;;;;22.92;11.80;;;;;;;-4.55;86.93;100431.78;10334669;28;20049;-78
2022/01/29 21:06:45;;;;;;;27.63;11.77;;;;;;;-3.77;87.39;100583.84;10334850;28;20046;-78
2022/01/29 21:11:46;;;;;;;20.58;10.77;;;;;;;-4.07;87.37;100484.91;10334976;28;20038;-78
2022/01/29 21:16:47;;;;;;;22.23;10.82;;;;;;;-3.15;87.46;100660.59;10332607;28;20501;-78
2022/01/29 21:21:48;;;;;;;20.95;10.25;;;;;;;-4.78;87.23;100415.53;10333666;28;20422;-78
2022/01/29 21:27:00;;;;;;;24.00;10.45;;;;;;;-4.82;87.29;100450.25;10332836;28;20045;-78
2022/01/29 21:32:02;;;;;;;21.63;10.38;;;;;;;-4.19;88.01;100562.41;10333097;28;20069;-78
2022/01/29 21:37:04;;;;;;;17.33;9.23;;;;;;;-5.36;88.46;100350.75;10333305;28;20046;-78
2022/01/29 21:42:07;;;;;;;17.95;9.75;;;;;;;-5.40;88.60;100331.91;10333045;28;20129;-78
2022/01/29 21:47:09;;;;;;;17.45;9.90;;;;;;;-3.27;87.89;100680.19;10331091;28;20410;-78
2022/01/29 21:52:10;;;;;;;21.08;10.38;;;;;;;-3.98;87.98;100570.09;10332810;28;20104;-78
2022/01/29 21:57:14;;;;;;;18.13;9.90;;;;;;;-3.88;88.02;100586.97;10331395;28;20129;-79
2022/01/29 22:02:14;;;;;;;31.50;16.13;;;;;;;-4.28;87.70;100520.44;10332491;28;20077;-78
2022/01/29 22:07:15;;;;;;;29.38;14.05;;;;;;;-4.57;87.47;100514.00;10333258;28;20065;-78
2022/01/29 22:12:18;;;;;;;23.45;12.68;;;;;;;-3.63;87.97;100694.88;10331462;28;20081;-78
2022/01/29 22:17:18;;;;;;;29.30;14.85;;;;;;;-3.65;88.14;100679.34;10331979;28;20129;-78
2022/01/29 22:22:19;;;;;;;28.05;14.18;;;;;;;-4.95;87.93;100465.50;10332063;28;20133;-78
2022/01/29 22:27:22;;;;;;;32.13;13.55;;;;;;;-3.83;88.04;100668.03;10330343;28;20046;-78
2022/01/29 22:32:23;;;;;;;25.85;12.70;;;;;;;-3.87;88.25;100650.91;10331701;28;20089;-78
2022/01/29 22:37:24;;;;;;;25.05;12.10;;;;;;;-4.74;87.89;100525.91;10331484;28;20606;-78
2022/01/29 22:42:25;;;;;;;21.70;10.68;;;;;;;-3.78;87.17;100707.63;10334972;28;20050;-79
2022/01/29 22:47:26;;;;;;;20.55;9.60;;;;;;;-4.74;87.44;100544.06;10339167;28;20602;-78
2022/01/29 22:52:28;;;;;;;20.98;9.90;;;;;;;-5.55;87.87;100430.94;10338876;28;20124;-78
2022/01/29 22:57:29;;;;;;;19.15;9.90;;;;;;;-4.83;88.36;100518.53;10339469;28;20051;-78
2022/01/29 23:02:30;;;;;;;23.63;10.55;;;;;;;-3.93;88.24;100646.00;10339088;28;20042;-78
2022/01/29 23:07:35;;;;;;;24.40;10.40;;;;;;;-5.51;88.62;100376.38;10339948;28;20477;-78
2022/01/29 23:12:54;;;;;;;29.15;13.98;;;;;;;-4.27;89.54;100564.50;10339097;28;20128;-79
2022/01/29 23:17:55;;;;;;;20.65;9.85;;;;;;;-3.63;89.23;100661.94;10339157;28;20483;-79
2022/01/29 23:23:17;;;;;;;22.95;10.32;;;;;;;-3.81;90.00;100596.13;10337317;28;20441;-79